sensor_id;sensor_type;location;lat;lon;timestamp;noise_LAeq;noise_LA_min;noise_LA_max;noise_LA01;noise_LA95
76261;Laerm;65076;52.362;6.588;2023-02-01T00:01:20;47.93;31.78;67.10;;
76261;Laerm;65076;52.362;6.588;2023-02-01T00:03:48;34.34;30.79;48.17;;
76261;Laerm;65076;52.362;6.588;2023-02-01T00:06:17;48.42;30.92;66.76;;
76261;Laerm;65076;52.362;6.588;2023-02-01T00:08:45;35.10;30.26;51.90;;
76261;Laerm;65076;52.362;6.588;2023-02-01T00:11:13;67.92;30.57;82.53;;
76261;Laerm;65076;52.362;6.588;2023-02-01T00:13:42;37.43;31.75;42.56;;
76261;Laerm;65076;52.362;6.588;2023-02-01T00:16:12;35.79;31.36;43.12;;
76261;Laerm;65076;52.362;6.588;2023-02-01T00:18:42;40.75;30.92;56.65;;
76261;Laerm;65076;52.362;6.588;2023-02-01T00:21:11;34.20;30.32;46.65;;
76261;Laerm;65076;52.362;6.588;2023-02-01T00:23:41;34.18;30.00;42.48;;
76261;Laerm;65076;52.362;6.588;2023-02-01T00:26:14;33.95;30.42;44.41;;
76261;Laerm;65076;52.362;6.588;2023-02-01T00:28:42;35.00;30.92;49.39;;
76261;Laerm;65076;52.362;6.588;2023-02-01T00:31:10;37.31;32.21;49.27;;
76261;Laerm;65076;52.362;6.588;2023-02-01T00:33:38;35.35;31.29;48.62;;
76261;Laerm;65076;52.362;6.588;2023-02-01T00:36:08;36.42;31.48;49.40;;
76261;Laerm;65076;52.362;6.588;2023-02-01T00:38:38;36.99;31.62;52.17;;
76261;Laerm;65076;52.362;6.588;2023-02-01T00:41:11;36.93;31.47;58.40;;
76261;Laerm;65076;52.362;6.588;2023-02-01T00:43:40;37.45;31.34;56.31;;
76261;Laerm;65076;52.362;6.588;2023-02-01T00:46:09;37.36;31.88;52.72;;
76261;Laerm;65076;52.362;6.588;2023-02-01T00:48:38;37.58;32.48;54.52;;
76261;Laerm;65076;52.362;6.588;2023-02-01T00:51:10;36.43;31.60;55.07;;
76261;Laerm;65076;52.362;6.588;2023-02-01T00:53:38;35.67;31.44;53.93;;
76261;Laerm;65076;52.362;6.588;2023-02-01T00:56:08;37.18;31.75;54.45;;
76261;Laerm;65076;52.362;6.588;2023-02-01T00:58:36;36.23;31.26;48.78;;
76261;Laerm;65076;52.362;6.588;2023-02-01T01:01:06;35.93;31.40;52.92;;
76261;Laerm;65076;52.362;6.588;2023-02-01T01:03:37;35.62;31.28;52.07;;
76261;Laerm;65076;52.362;6.588;2023-02-01T01:06:08;36.68;31.12;56.33;;
76261;Laerm;65076;52.362;6.588;2023-02-01T01:08:38;34.92;31.56;49.26;;
76261;Laerm;65076;52.362;6.588;2023-02-01T01:11:10;37.28;30.97;54.76;;
76261;Laerm;65076;52.362;6.588;2023-02-01T01:13:39;35.34;30.78;53.60;;
76261;Laerm;65076;52.362;6.588;2023-02-01T01:16:09;40.26;32.31;57.60;;
76261;Laerm;65076;52.362;6.588;2023-02-01T01:18:37;35.05;31.41;49.59;;
76261;Laerm;65076;52.362;6.588;2023-02-01T01:21:08;36.88;31.60;59.63;;
76261;Laerm;65076;52.362;6.588;2023-02-01T01:23:36;38.46;32.11;57.78;;
76261;Laerm;65076;52.362;6.588;2023-02-01T01:26:06;35.77;31.73;51.16;;
76261;Laerm;65076;52.362;6.588;2023-02-01T01:28:36;38.02;31.22;61.95;;
76261;Laerm;65076;52.362;6.588;2023-02-01T01:31:07;39.27;31.52;50.60;;
76261;Laerm;65076;52.362;6.588;2023-02-01T01:33:35;36.42;32.38;50.22;;
76261;Laerm;65076;52.362;6.588;2023-02-01T01:36:05;43.40;32.38;61.05;;
76261;Laerm;65076;52.362;6.588;2023-02-01T01:38:34;40.69;31.90;59.15;;
76261;Laerm;65076;52.362;6.588;2023-02-01T01:41:02;36.17;32.97;48.04;;
76261;Laerm;65076;52.362;6.588;2023-02-01T01:43:52;39.06;32.36;56.42;;
76261;Laerm;65076;52.362;6.588;2023-02-01T01:46:24;45.71;31.80;66.35;;
76261;Laerm;65076;52.362;6.588;2023-02-01T01:49:01;38.90;33.16;59.15;;
76261;Laerm;65076;52.362;6.588;2023-02-01T01:51:37;41.21;35.06;51.53;;
76261;Laerm;65076;52.362;6.588;2023-02-01T01:54:13;39.99;34.25;54.46;;
76261;Laerm;65076;52.362;6.588;2023-02-01T01:56:49;39.31;34.25;51.00;;
76261;Laerm;65076;52.362;6.588;2023-02-01T01:59:21;39.36;34.03;57.60;;
76261;Laerm;65076;52.362;6.588;2023-02-01T02:01:51;37.49;32.93;43.34;;
76261;Laerm;65076;52.362;6.588;2023-02-01T02:04:20;37.08;32.98;49.44;;
76261;Laerm;65076;52.362;6.588;2023-02-01T02:06:56;38.00;32.45;53.61;;
76261;Laerm;65076;52.362;6.588;2023-02-01T02:09:26;41.31;33.83;58.71;;
76261;Laerm;65076;52.362;6.588;2023-02-01T02:11:55;45.94;34.19;61.28;;
76261;Laerm;65076;52.362;6.588;2023-02-01T02:14:26;36.27;31.98;43.11;;
76261;Laerm;65076;52.362;6.588;2023-02-01T02:17:06;35.59;31.93;50.91;;
76261;Laerm;65076;52.362;6.588;2023-02-01T02:20:26;38.08;32.29;50.43;;
76261;Laerm;65076;52.362;6.588;2023-02-01T02:23:56;36.18;31.93;46.09;;
76261;Laerm;65076;52.362;6.588;2023-02-01T02:27:15;38.35;31.87;58.82;;
76261;Laerm;65076;52.362;6.588;2023-02-01T02:33:42;40.54;32.03;57.73;;
76261;Laerm;65076;52.362;6.588;2023-02-01T02:36:23;36.42;31.55;48.70;;
76261;Laerm;65076;52.362;6.588;2023-02-01T02:39:05;40.63;32.76;54.47;;
76261;Laerm;65076;52.362;6.588;2023-02-01T02:41:50;39.22;33.44;54.44;;
76261;Laerm;65076;52.362;6.588;2023-02-01T02:44:48;39.59;34.12;53.62;;
76261;Laerm;65076;52.362;6.588;2023-02-01T02:47:44;38.18;32.71;59.73;;
76261;Laerm;65076;52.362;6.588;2023-02-01T02:50:27;38.16;32.93;51.43;;
76261;Laerm;65076;52.362;6.588;2023-02-01T02:53:19;38.59;32.53;55.66;;
76261;Laerm;65076;52.362;6.588;2023-02-01T02:56:09;40.50;33.38;51.86;;
76261;Laerm;65076;52.362;6.588;2023-02-01T02:58:58;68.35;34.58;81.64;;
76261;Laerm;65076;52.362;6.588;2023-02-01T03:01:44;38.39;34.42;56.01;;
76261;Laerm;65076;52.362;6.588;2023-02-01T03:04:30;41.74;34.30;61.47;;
76261;Laerm;65076;52.362;6.588;2023-02-01T03:07:13;41.39;34.54;55.92;;
76261;Laerm;65076;52.362;6.588;2023-02-01T03:09:47;37.23;33.85;50.86;;
76261;Laerm;65076;52.362;6.588;2023-02-01T03:12:17;40.54;34.51;59.40;;
76261;Laerm;65076;52.362;6.588;2023-02-01T03:15:11;38.44;33.41;61.53;;
76261;Laerm;65076;52.362;6.588;2023-02-01T03:17:43;47.89;34.76;62.01;;
76261;Laerm;65076;52.362;6.588;2023-02-01T03:20:14;40.43;35.18;63.03;;
76261;Laerm;65076;52.362;6.588;2023-02-01T03:22:50;46.33;34.42;63.24;;
76261;Laerm;65076;52.362;6.588;2023-02-01T03:25:25;42.13;33.98;60.63;;
76261;Laerm;65076;52.362;6.588;2023-02-01T03:27:59;40.39;33.87;52.40;;
76261;Laerm;65076;52.362;6.588;2023-02-01T03:30:34;49.89;36.61;74.95;;
76261;Laerm;65076;52.362;6.588;2023-02-01T03:33:08;42.05;35.49;58.62;;
76261;Laerm;65076;52.362;6.588;2023-02-01T03:35:50;45.49;34.71;64.84;;
76261;Laerm;65076;52.362;6.588;2023-02-01T03:38:27;47.02;35.88;62.24;;
76261;Laerm;65076;52.362;6.588;2023-02-01T03:41:07;44.75;35.02;61.35;;
76261;Laerm;65076;52.362;6.588;2023-02-01T03:43:50;44.86;36.89;61.77;;
76261;Laerm;65076;52.362;6.588;2023-02-01T03:46:27;45.96;35.84;57.16;;
76261;Laerm;65076;52.362;6.588;2023-02-01T03:49:02;43.14;35.22;59.75;;
76261;Laerm;65076;52.362;6.588;2023-02-01T03:51:33;47.82;36.86;64.23;;
76261;Laerm;65076;52.362;6.588;2023-02-01T03:54:06;48.42;37.12;64.38;;
76261;Laerm;65076;52.362;6.588;2023-02-01T03:56:38;41.54;35.69;55.23;;
76261;Laerm;65076;52.362;6.588;2023-02-01T03:59:08;42.25;35.61;60.81;;
76261;Laerm;65076;52.362;6.588;2023-02-01T04:01:36;46.31;36.14;60.49;;
76261;Laerm;65076;52.362;6.588;2023-02-01T04:04:04;68.70;37.31;83.26;;
76261;Laerm;65076;52.362;6.588;2023-02-01T04:06:33;43.11;34.13;62.21;;
76261;Laerm;65076;52.362;6.588;2023-02-01T04:09:02;42.96;37.03;61.02;;
76261;Laerm;65076;52.362;6.588;2023-02-01T04:11:30;59.94;35.74;77.08;;
76261;Laerm;65076;52.362;6.588;2023-02-01T04:13:58;42.07;37.29;61.06;;
76261;Laerm;65076;52.362;6.588;2023-02-01T04:16:31;47.06;35.72;63.41;;
76261;Laerm;65076;52.362;6.588;2023-02-01T04:19:00;45.57;37.24;64.36;;
76261;Laerm;65076;52.362;6.588;2023-02-01T04:21:28;45.68;34.69;66.90;;
76261;Laerm;65076;52.362;6.588;2023-02-01T04:23:56;42.13;35.25;59.56;;
76261;Laerm;65076;52.362;6.588;2023-02-01T04:26:25;44.02;37.12;66.34;;
76261;Laerm;65076;52.362;6.588;2023-02-01T04:28:53;48.78;35.18;64.46;;
76261;Laerm;65076;52.362;6.588;2023-02-01T04:31:21;49.70;36.40;65.03;;
76261;Laerm;65076;52.362;6.588;2023-02-01T04:33:52;44.59;38.18;59.10;;
76261;Laerm;65076;52.362;6.588;2023-02-01T04:36:21;54.63;40.52;72.76;;
76261;Laerm;65076;52.362;6.588;2023-02-01T04:38:50;57.35;40.96;77.26;;
76261;Laerm;65076;52.362;6.588;2023-02-01T04:41:19;61.20;38.41;81.12;;
76261;Laerm;65076;52.362;6.588;2023-02-01T04:43:51;47.41;38.63;63.88;;
76261;Laerm;65076;52.362;6.588;2023-02-01T04:46:19;47.13;38.11;66.18;;
76261;Laerm;65076;52.362;6.588;2023-02-01T04:48:48;48.11;35.31;67.47;;
76261;Laerm;65076;52.362;6.588;2023-02-01T04:51:16;48.95;40.65;66.32;;
76261;Laerm;65076;52.362;6.588;2023-02-01T04:53:44;52.34;38.63;67.98;;
76261;Laerm;65076;52.362;6.588;2023-02-01T04:56:12;51.45;38.20;72.79;;
76261;Laerm;65076;52.362;6.588;2023-02-01T04:58:40;47.95;36.93;63.92;;
76261;Laerm;65076;52.362;6.588;2023-02-01T05:01:09;53.73;37.48;71.53;;
76261;Laerm;65076;52.362;6.588;2023-02-01T05:03:37;47.79;39.23;62.99;;
76261;Laerm;65076;52.362;6.588;2023-02-01T05:06:05;48.49;39.64;69.78;;
76261;Laerm;65076;52.362;6.588;2023-02-01T05:08:33;52.50;39.16;73.28;;
76261;Laerm;65076;52.362;6.588;2023-02-01T05:11:04;56.07;43.94;74.06;;
76261;Laerm;65076;52.362;6.588;2023-02-01T05:13:32;61.81;39.30;78.81;;
76261;Laerm;65076;52.362;6.588;2023-02-01T05:16:19;52.28;38.20;65.50;;
76261;Laerm;65076;52.362;6.588;2023-02-01T05:18:47;52.65;39.27;69.73;;
76261;Laerm;65076;52.362;6.588;2023-02-01T05:21:15;52.76;40.28;66.61;;
76261;Laerm;65076;52.362;6.588;2023-02-01T05:23:43;49.34;36.84;65.66;;
76261;Laerm;65076;52.362;6.588;2023-02-01T05:26:28;51.50;37.63;67.80;;
76261;Laerm;65076;52.362;6.588;2023-02-01T05:28:57;51.97;37.33;71.68;;
76261;Laerm;65076;52.362;6.588;2023-02-01T05:31:26;54.49;40.59;71.20;;
76261;Laerm;65076;52.362;6.588;2023-02-01T05:33:55;52.63;39.16;66.92;;
76261;Laerm;65076;52.362;6.588;2023-02-01T05:36:23;52.33;40.22;63.89;;
76261;Laerm;65076;52.362;6.588;2023-02-01T05:38:51;55.57;37.77;75.17;;
76261;Laerm;65076;52.362;6.588;2023-02-01T05:41:18;62.42;42.16;78.74;;
76261;Laerm;65076;52.362;6.588;2023-02-01T05:43:47;51.51;42.72;63.25;;
76261;Laerm;65076;52.362;6.588;2023-02-01T05:46:15;51.43;39.71;66.71;;
76261;Laerm;65076;52.362;6.588;2023-02-01T05:48:45;49.13;37.55;63.13;;
76261;Laerm;65076;52.362;6.588;2023-02-01T05:51:13;53.53;40.52;69.73;;
76261;Laerm;65076;52.362;6.588;2023-02-01T05:53:41;55.46;41.55;70.55;;
76261;Laerm;65076;52.362;6.588;2023-02-01T05:56:09;58.55;38.77;77.66;;
76261;Laerm;65076;52.362;6.588;2023-02-01T05:58:36;50.15;41.85;66.52;;
76261;Laerm;65076;52.362;6.588;2023-02-01T06:01:04;56.40;42.52;71.74;;
76261;Laerm;65076;52.362;6.588;2023-02-01T06:03:32;52.90;42.38;63.73;;
76261;Laerm;65076;52.362;6.588;2023-02-01T06:06:02;57.66;42.32;73.22;;
76261;Laerm;65076;52.362;6.588;2023-02-01T06:08:30;55.27;44.81;71.55;;
76261;Laerm;65076;52.362;6.588;2023-02-01T06:10:59;63.53;45.59;76.32;;
76261;Laerm;65076;52.362;6.588;2023-02-01T06:13:27;52.94;40.07;66.33;;
76261;Laerm;65076;52.362;6.588;2023-02-01T06:15:58;54.49;41.96;69.58;;
76261;Laerm;65076;52.362;6.588;2023-02-01T06:18:26;54.44;43.32;74.75;;
76261;Laerm;65076;52.362;6.588;2023-02-01T06:20:55;58.53;40.15;73.80;;
76261;Laerm;65076;52.362;6.588;2023-02-01T06:23:24;54.94;38.44;63.89;;
76261;Laerm;65076;52.362;6.588;2023-02-01T06:25:58;55.14;41.86;68.48;;
76261;Laerm;65076;52.362;6.588;2023-02-01T06:28:26;55.31;41.84;71.85;;
76261;Laerm;65076;52.362;6.588;2023-02-01T06:30:55;56.98;43.36;69.79;;
76261;Laerm;65076;52.362;6.588;2023-02-01T06:33:25;54.77;40.33;71.44;;
76261;Laerm;65076;52.362;6.588;2023-02-01T06:36:00;52.35;41.20;64.76;;
76261;Laerm;65076;52.362;6.588;2023-02-01T06:38:31;61.51;44.95;76.48;;
76261;Laerm;65076;52.362;6.588;2023-02-01T06:41:01;62.68;44.26;76.76;;
76261;Laerm;65076;52.362;6.588;2023-02-01T06:43:30;55.79;41.37;70.37;;
76261;Laerm;65076;52.362;6.588;2023-02-01T06:46:00;58.37;41.98;75.11;;
76261;Laerm;65076;52.362;6.588;2023-02-01T06:48:29;69.06;41.87;83.47;;
76261;Laerm;65076;52.362;6.588;2023-02-01T06:50:57;57.20;43.91;69.37;;
76261;Laerm;65076;52.362;6.588;2023-02-01T06:53:25;56.58;43.90;70.23;;
76261;Laerm;65076;52.362;6.588;2023-02-01T06:55:57;58.72;43.23;76.19;;
76261;Laerm;65076;52.362;6.588;2023-02-01T06:58:29;54.01;41.73;65.87;;
76261;Laerm;65076;52.362;6.588;2023-02-01T07:00:57;57.23;43.88;69.51;;
76261;Laerm;65076;52.362;6.588;2023-02-01T07:03:26;55.45;43.46;69.49;;
76261;Laerm;65076;52.362;6.588;2023-02-01T07:05:56;54.32;40.02;68.35;;
76261;Laerm;65076;52.362;6.588;2023-02-01T07:08:26;60.74;43.29;77.92;;
76261;Laerm;65076;52.362;6.588;2023-02-01T07:10:56;60.70;40.57;76.53;;
76261;Laerm;65076;52.362;6.588;2023-02-01T07:13:24;54.29;41.07;66.16;;
76261;Laerm;65076;52.362;6.588;2023-02-01T07:15:52;56.94;40.83;67.92;;
76261;Laerm;65076;52.362;6.588;2023-02-01T07:18:20;58.36;44.78;69.83;;
76261;Laerm;65076;52.362;6.588;2023-02-01T07:20:50;57.96;44.70;72.36;;
76261;Laerm;65076;52.362;6.588;2023-02-01T07:23:18;58.22;43.83;69.88;;
76261;Laerm;65076;52.362;6.588;2023-02-01T07:25:46;58.62;44.55;73.99;;
76261;Laerm;65076;52.362;6.588;2023-02-01T07:28:16;55.65;42.40;68.47;;
76261;Laerm;65076;52.362;6.588;2023-02-01T07:30:43;56.47;44.61;73.21;;
76261;Laerm;65076;52.362;6.588;2023-02-01T07:33:19;55.90;41.06;66.71;;
76261;Laerm;65076;52.362;6.588;2023-02-01T07:35:50;60.54;43.28;77.27;;
76261;Laerm;65076;52.362;6.588;2023-02-01T07:38:31;59.63;44.79;75.31;;
76261;Laerm;65076;52.362;6.588;2023-02-01T07:40:59;60.21;45.10;76.50;;
76261;Laerm;65076;52.362;6.588;2023-02-01T07:43:29;61.59;42.95;75.60;;
76261;Laerm;65076;52.362;6.588;2023-02-01T07:45:57;67.10;44.84;81.88;;
76261;Laerm;65076;52.362;6.588;2023-02-01T07:48:36;59.08;41.20;75.10;;
76261;Laerm;65076;52.362;6.588;2023-02-01T07:51:08;55.99;42.58;70.63;;
76261;Laerm;65076;52.362;6.588;2023-02-01T07:53:37;56.15;41.24;67.90;;
76261;Laerm;65076;52.362;6.588;2023-02-01T07:56:12;58.77;42.20;77.10;;
76261;Laerm;65076;52.362;6.588;2023-02-01T07:58:42;59.00;45.46;76.61;;
76261;Laerm;65076;52.362;6.588;2023-02-01T08:01:14;54.73;42.29;71.46;;
76261;Laerm;65076;52.362;6.588;2023-02-01T08:03:49;55.29;41.78;67.07;;
76261;Laerm;65076;52.362;6.588;2023-02-01T08:06:18;55.16;41.76;67.84;;
76261;Laerm;65076;52.362;6.588;2023-02-01T08:08:47;59.32;43.19;77.01;;
76261;Laerm;65076;52.362;6.588;2023-02-01T08:11:17;66.07;41.86;78.06;;
76261;Laerm;65076;52.362;6.588;2023-02-01T08:13:47;53.37;41.48;63.64;;
76261;Laerm;65076;52.362;6.588;2023-02-01T08:16:18;54.62;40.69;67.62;;
76261;Laerm;65076;52.362;6.588;2023-02-01T08:18:47;62.56;45.96;77.52;;
76261;Laerm;65076;52.362;6.588;2023-02-01T08:21:19;52.66;40.35;64.54;;
76261;Laerm;65076;52.362;6.588;2023-02-01T08:23:48;54.61;44.69;70.22;;
76261;Laerm;65076;52.362;6.588;2023-02-01T08:26:19;58.21;42.52;72.84;;
76261;Laerm;65076;52.362;6.588;2023-02-01T08:28:51;57.60;46.25;75.82;;
76261;Laerm;65076;52.362;6.588;2023-02-01T08:31:22;55.01;43.50;67.76;;
76261;Laerm;65076;52.362;6.588;2023-02-01T08:33:51;53.19;42.73;64.67;;
76261;Laerm;65076;52.362;6.588;2023-02-01T08:36:20;55.68;42.69;68.02;;
76261;Laerm;65076;52.362;6.588;2023-02-01T08:38:48;59.04;43.74;75.28;;
76261;Laerm;65076;52.362;6.588;2023-02-01T08:41:20;60.00;45.01;77.80;;
76261;Laerm;65076;52.362;6.588;2023-02-01T08:43:49;55.37;41.58;67.67;;
76261;Laerm;65076;52.362;6.588;2023-02-01T08:46:17;68.38;42.11;81.54;;
76261;Laerm;65076;52.362;6.588;2023-02-01T08:48:46;54.69;42.29;72.04;;
76261;Laerm;65076;52.362;6.588;2023-02-01T08:51:19;58.97;40.49;72.56;;
76261;Laerm;65076;52.362;6.588;2023-02-01T08:53:48;54.76;41.28;71.32;;
76261;Laerm;65076;52.362;6.588;2023-02-01T08:56:18;59.46;43.30;74.83;;
76261;Laerm;65076;52.362;6.588;2023-02-01T08:58:46;52.70;44.10;63.35;;
76261;Laerm;65076;52.362;6.588;2023-02-01T09:01:17;58.86;47.09;70.36;;
76261;Laerm;65076;52.362;6.588;2023-02-01T09:03:45;53.15;39.52;64.10;;
76261;Laerm;65076;52.362;6.588;2023-02-01T09:06:15;56.27;42.20;68.64;;
76261;Laerm;65076;52.362;6.588;2023-02-01T09:08:43;58.60;44.49;75.86;;
76261;Laerm;65076;52.362;6.588;2023-02-01T09:11:16;59.16;43.51;73.38;;
76261;Laerm;65076;52.362;6.588;2023-02-01T09:13:47;55.52;41.51;68.19;;
76261;Laerm;65076;52.362;6.588;2023-02-01T09:16:16;51.62;39.40;62.96;;
76261;Laerm;65076;52.362;6.588;2023-02-01T09:18:44;55.70;42.49;69.14;;
76261;Laerm;65076;52.362;6.588;2023-02-01T09:21:32;61.56;44.47;75.61;;
76261;Laerm;65076;52.362;6.588;2023-02-01T09:24:00;56.79;41.95;81.53;;
76261;Laerm;65076;52.362;6.588;2023-02-01T09:26:28;55.24;41.96;68.33;;
76261;Laerm;65076;52.362;6.588;2023-02-01T09:28:58;56.78;42.09;73.06;;
76261;Laerm;65076;52.362;6.588;2023-02-01T09:31:28;55.88;39.60;70.28;;
76261;Laerm;65076;52.362;6.588;2023-02-01T09:33:56;53.18;42.17;67.46;;
76261;Laerm;65076;52.362;6.588;2023-02-01T09:36:24;55.61;42.77;69.17;;
76261;Laerm;65076;52.362;6.588;2023-02-01T09:38:52;58.86;43.59;75.36;;
76261;Laerm;65076;52.362;6.588;2023-02-01T09:41:35;63.40;44.04;78.95;;
76261;Laerm;65076;52.362;6.588;2023-02-01T09:44:22;59.09;45.40;75.76;;
76261;Laerm;65076;52.362;6.588;2023-02-01T09:47:03;54.82;42.92;64.93;;
76261;Laerm;65076;52.362;6.588;2023-02-01T09:49:37;60.59;41.60;77.48;;
76261;Laerm;65076;52.362;6.588;2023-02-01T09:52:14;52.90;40.71;67.58;;
76261;Laerm;65076;52.362;6.588;2023-02-01T09:54:52;58.82;46.52;75.87;;
76261;Laerm;65076;52.362;6.588;2023-02-01T09:57:30;53.53;40.07;65.86;;
76261;Laerm;65076;52.362;6.588;2023-02-01T10:00:09;56.22;43.67;71.50;;
76261;Laerm;65076;52.362;6.588;2023-02-01T10:02:43;58.17;41.43;71.99;;
76261;Laerm;65076;52.362;6.588;2023-02-01T10:05:15;59.54;43.36;75.18;;
76261;Laerm;65076;52.362;6.588;2023-02-01T10:07:53;55.97;44.12;70.78;;
76261;Laerm;65076;52.362;6.588;2023-02-01T10:10:32;62.55;47.33;75.73;;
76261;Laerm;65076;52.362;6.588;2023-02-01T10:13:26;61.80;43.68;76.89;;
76261;Laerm;65076;52.362;6.588;2023-02-01T10:16:17;53.95;42.62;67.08;;
76261;Laerm;65076;52.362;6.588;2023-02-01T10:19:27;59.07;44.41;76.19;;
76261;Laerm;65076;52.362;6.588;2023-02-01T10:22:02;63.68;43.57;78.70;;
76261;Laerm;65076;52.362;6.588;2023-02-01T10:24:41;56.38;42.87;71.92;;
76261;Laerm;65076;52.362;6.588;2023-02-01T10:27:17;58.74;47.26;68.65;;
76261;Laerm;65076;52.362;6.588;2023-02-01T10:29:52;56.74;45.98;71.31;;
76261;Laerm;65076;52.362;6.588;2023-02-01T10:32:29;57.74;47.58;68.17;;
76261;Laerm;65076;52.362;6.588;2023-02-01T10:35:02;57.27;47.97;74.66;;
76261;Laerm;65076;52.362;6.588;2023-02-01T10:37:35;59.43;46.42;76.59;;
76261;Laerm;65076;52.362;6.588;2023-02-01T10:40:16;61.97;45.11;76.17;;
76261;Laerm;65076;52.362;6.588;2023-02-01T10:42:47;59.51;43.90;74.69;;
76261;Laerm;65076;52.362;6.588;2023-02-01T10:45:19;59.53;44.76;69.91;;
76261;Laerm;65076;52.362;6.588;2023-02-01T10:47:51;56.59;44.34;68.95;;
76261;Laerm;65076;52.362;6.588;2023-02-01T10:50:34;60.57;45.32;74.57;;
76261;Laerm;65076;52.362;6.588;2023-02-01T10:53:11;58.55;43.92;72.68;;
76261;Laerm;65076;52.362;6.588;2023-02-01T10:55:47;60.09;46.55;69.33;;
76261;Laerm;65076;52.362;6.588;2023-02-01T10:58:18;60.75;45.46;77.41;;
76261;Laerm;65076;52.362;6.588;2023-02-01T11:00:52;60.47;44.88;71.93;;
76261;Laerm;65076;52.362;6.588;2023-02-01T11:03:33;58.51;44.45;72.47;;
76261;Laerm;65076;52.362;6.588;2023-02-01T11:06:13;60.81;46.42;75.28;;
76261;Laerm;65076;52.362;6.588;2023-02-01T11:08:48;59.73;46.60;71.27;;
76261;Laerm;65076;52.362;6.588;2023-02-01T11:11:18;61.48;45.39;77.20;;
76261;Laerm;65076;52.362;6.588;2023-02-01T11:13:55;61.80;46.28;80.94;;
76261;Laerm;65076;52.362;6.588;2023-02-01T11:16:33;54.80;41.28;65.47;;
76261;Laerm;65076;52.362;6.588;2023-02-01T11:19:03;57.43;42.71;66.41;;
76261;Laerm;65076;52.362;6.588;2023-02-01T11:21:34;61.04;44.52;78.38;;
76261;Laerm;65076;52.362;6.588;2023-02-01T11:24:11;55.12;43.22;68.60;;
76261;Laerm;65076;52.362;6.588;2023-02-01T11:26:46;57.90;43.69;69.46;;
76261;Laerm;65076;52.362;6.588;2023-02-01T11:29:18;57.54;43.56;73.54;;
76261;Laerm;65076;52.362;6.588;2023-02-01T11:31:50;57.58;44.52;72.03;;
76261;Laerm;65076;52.362;6.588;2023-02-01T11:34:24;58.87;47.07;68.73;;
76261;Laerm;65076;52.362;6.588;2023-02-01T11:37:00;54.78;42.48;66.27;;
76261;Laerm;65076;52.362;6.588;2023-02-01T11:39:33;62.67;46.64;76.31;;
76261;Laerm;65076;52.362;6.588;2023-02-01T11:42:11;61.77;44.35;75.75;;
76261;Laerm;65076;52.362;6.588;2023-02-01T11:44:43;58.64;45.84;83.41;;
76261;Laerm;65076;52.362;6.588;2023-02-01T11:47:26;68.19;45.57;81.71;;
76261;Laerm;65076;52.362;6.588;2023-02-01T11:49:58;61.23;46.42;76.11;;
76261;Laerm;65076;52.362;6.588;2023-02-01T11:52:48;58.51;44.21;71.27;;
76261;Laerm;65076;52.362;6.588;2023-02-01T11:55:45;58.21;46.96;68.07;;
76261;Laerm;65076;52.362;6.588;2023-02-01T12:01:37;56.67;42.92;70.42;;
76261;Laerm;65076;52.362;6.588;2023-02-01T12:07:23;55.85;39.61;67.42;;
76261;Laerm;65076;52.362;6.588;2023-02-01T12:10:15;58.08;47.51;76.97;;
76261;Laerm;65076;52.362;6.588;2023-02-01T12:13:00;62.01;43.89;76.75;;
76261;Laerm;65076;52.362;6.588;2023-02-01T12:15:48;59.90;44.53;73.97;;
76261;Laerm;65076;52.362;6.588;2023-02-01T12:19:11;54.61;41.23;65.70;;
76261;Laerm;65076;52.362;6.588;2023-02-01T12:22:08;58.43;46.40;71.19;;
76261;Laerm;65076;52.362;6.588;2023-02-01T12:24:56;57.11;43.92;68.60;;
76261;Laerm;65076;52.362;6.588;2023-02-01T12:27:53;60.66;46.72;71.35;;
76261;Laerm;65076;52.362;6.588;2023-02-01T12:31:06;59.51;47.65;72.71;;
76261;Laerm;65076;52.362;6.588;2023-02-01T12:34:02;59.28;45.86;70.85;;
76261;Laerm;65076;52.362;6.588;2023-02-01T12:36:47;58.94;44.88;75.67;;
76261;Laerm;65076;52.362;6.588;2023-02-01T12:39:26;62.29;46.07;77.47;;
76261;Laerm;65076;52.362;6.588;2023-02-01T12:42:04;56.38;45.98;73.99;;
76261;Laerm;65076;52.362;6.588;2023-02-01T12:44:47;61.19;46.48;79.77;;
76261;Laerm;65076;52.362;6.588;2023-02-01T12:47:26;71.06;46.92;81.32;;
76261;Laerm;65076;52.362;6.588;2023-02-01T12:50:00;58.36;45.25;71.95;;
76261;Laerm;65076;52.362;6.588;2023-02-01T12:52:38;57.69;45.62;76.34;;
76261;Laerm;65076;52.362;6.588;2023-02-01T12:55:17;54.95;45.25;63.22;;
76261;Laerm;65076;52.362;6.588;2023-02-01T12:57:55;59.57;45.74;75.03;;
76261;Laerm;65076;52.362;6.588;2023-02-01T13:00:32;56.29;44.68;74.32;;
76261;Laerm;65076;52.362;6.588;2023-02-01T13:03:17;58.74;46.21;71.97;;
76261;Laerm;65076;52.362;6.588;2023-02-01T13:05:55;56.82;45.56;68.78;;
76261;Laerm;65076;52.362;6.588;2023-02-01T13:08:30;56.55;44.24;74.50;;
76261;Laerm;65076;52.362;6.588;2023-02-01T13:11:10;61.85;47.17;75.40;;
76261;Laerm;65076;52.362;6.588;2023-02-01T13:14:02;65.38;44.01;87.22;;
76261;Laerm;65076;52.362;6.588;2023-02-01T13:16:36;58.17;46.00;69.06;;
76261;Laerm;65076;52.362;6.588;2023-02-01T13:19:14;57.41;45.43;72.06;;
76261;Laerm;65076;52.362;6.588;2023-02-01T13:21:49;60.48;47.60;78.73;;
76261;Laerm;65076;52.362;6.588;2023-02-01T13:24:31;58.72;44.53;73.12;;
76261;Laerm;65076;52.362;6.588;2023-02-01T13:27:01;58.73;47.82;74.65;;
76261;Laerm;65076;52.362;6.588;2023-02-01T13:29:32;56.70;46.95;71.04;;
76261;Laerm;65076;52.362;6.588;2023-02-01T13:32:19;58.99;46.99;77.92;;
76261;Laerm;65076;52.362;6.588;2023-02-01T13:39:10;58.89;45.11;77.47;;
76261;Laerm;65076;52.362;6.588;2023-02-01T13:41:54;59.62;43.35;75.38;;
76261;Laerm;65076;52.362;6.588;2023-02-01T13:44:29;57.56;46.10;70.43;;
76261;Laerm;65076;52.362;6.588;2023-02-01T13:47:03;56.79;45.24;68.82;;
76261;Laerm;65076;52.362;6.588;2023-02-01T13:49:40;62.95;45.67;77.86;;
76261;Laerm;65076;52.362;6.588;2023-02-01T13:52:28;57.52;46.75;69.49;;
76261;Laerm;65076;52.362;6.588;2023-02-01T13:55:30;57.41;44.16;69.45;;
76261;Laerm;65076;52.362;6.588;2023-02-01T13:58:14;60.03;44.66;75.76;;
76261;Laerm;65076;52.362;6.588;2023-02-01T14:00:43;60.09;45.82;69.82;;
76261;Laerm;65076;52.362;6.588;2023-02-01T14:03:18;54.96;44.31;68.56;;
76261;Laerm;65076;52.362;6.588;2023-02-01T14:06:01;63.38;44.81;81.96;;
76261;Laerm;65076;52.362;6.588;2023-02-01T14:08:46;60.41;45.52;75.79;;
76261;Laerm;65076;52.362;6.588;2023-02-01T14:11:39;59.23;44.79;74.76;;
76261;Laerm;65076;52.362;6.588;2023-02-01T14:14:44;57.67;45.42;69.10;;
76261;Laerm;65076;52.362;6.588;2023-02-01T14:17:40;56.13;43.34;66.89;;
76261;Laerm;65076;52.362;6.588;2023-02-01T14:20:45;59.57;47.09;74.15;;
76261;Laerm;65076;52.362;6.588;2023-02-01T14:23:27;56.50;43.03;69.75;;
76261;Laerm;65076;52.362;6.588;2023-02-01T14:26:17;58.56;46.52;68.82;;
76261;Laerm;65076;52.362;6.588;2023-02-01T14:28:59;62.85;42.41;77.09;;
76261;Laerm;65076;52.362;6.588;2023-02-01T14:34:50;60.13;44.62;71.86;;
76261;Laerm;65076;52.362;6.588;2023-02-01T14:37:29;59.85;41.87;75.74;;
76261;Laerm;65076;52.362;6.588;2023-02-01T14:40:01;56.42;43.03;66.90;;
76261;Laerm;65076;52.362;6.588;2023-02-01T14:42:42;61.04;42.92;75.67;;
76261;Laerm;65076;52.362;6.588;2023-02-01T14:45:49;57.54;42.07;70.35;;